Terminal Aerodrome Forecast
Issued by NWS

Home | Current Version | Previous Version | Graphics & Text | Print | Product List | Glossary On
Versions: 1 2 3 4 5 6 7 8 9 10 11 12 13 14 15 16 17 18 19 20 21 22 23 24 25 26 27 28 29 30 31 32
000
FTUS43 KBIS 261134
TAFDIK
TAF
KDIK 261134Z 2612/2712 02008KT P6SM BKN120
      TEMPO 2612/2614 5SM BR
     FM261500 07009KT P6SM -SHRA VCTS BKN090CB
     FM261800 06010G18KT P6SM VCTS BKN150CB
     FM262000 07014KT P6SM SCT120
     FM271000 06012KT P6SM BKN030=

USA.gov is the U.S. government's official web portal to all federal, state and local government web resources and services.